sensor_id;sensor_type;location;lat;lon;timestamp;pressure;altitude;pressure_sealevel;temperature;humidity
71996;BME280;59862;47.732;7.346;2023-02-01T00:00:34;99081.91;;;2.72;84.57
71996;BME280;59862;47.732;7.346;2023-02-01T00:03:02;99070.58;;;2.70;84.52
71996;BME280;59862;47.732;7.346;2023-02-01T00:05:31;99059.24;;;2.68;84.56
71996;BME280;59862;47.732;7.346;2023-02-01T00:07:58;99060.59;;;2.73;84.40
71996;BME280;59862;47.732;7.346;2023-02-01T00:10:26;99064.22;;;2.72;84.42
71996;BME280;59862;47.732;7.346;2023-02-01T00:12:53;99057.13;;;2.73;84.41
71996;BME280;59862;47.732;7.346;2023-02-01T00:15:20;99061.19;;;2.71;84.51
71996;BME280;59862;47.732;7.346;2023-02-01T00:17:54;99055.94;;;2.64;84.72
71996;BME280;59862;47.732;7.346;2023-02-01T00:20:24;99051.82;;;2.60;84.96
71996;BME280;59862;47.732;7.346;2023-02-01T00:22:51;99047.49;;;2.59;85.11
71996;BME280;59862;47.732;7.346;2023-02-01T00:25:19;99046.02;;;2.55;85.27
71996;BME280;59862;47.732;7.346;2023-02-01T00:27:48;99039.60;;;2.52;85.44
71996;BME280;59862;47.732;7.346;2023-02-01T00:30:17;99036.92;;;2.47;85.61
71996;BME280;59862;47.732;7.346;2023-02-01T00:32:45;99035.33;;;2.44;85.76
71996;BME280;59862;47.732;7.346;2023-02-01T00:35:12;99034.00;;;2.44;85.69
71996;BME280;59862;47.732;7.346;2023-02-01T00:37:40;99036.70;;;2.37;85.79
71996;BME280;59862;47.732;7.346;2023-02-01T00:40:08;99028.02;;;2.35;85.98
71996;BME280;59862;47.732;7.346;2023-02-01T00:42:35;99032.34;;;2.36;86.08
71996;BME280;59862;47.732;7.346;2023-02-01T00:45:03;99030.28;;;2.34;86.17
71996;BME280;59862;47.732;7.346;2023-02-01T00:47:30;99028.38;;;2.36;86.10
71996;BME280;59862;47.732;7.346;2023-02-01T00:49:58;99037.49;;;2.32;86.06
71996;BME280;59862;47.732;7.346;2023-02-01T00:52:25;99028.73;;;2.32;86.22
71996;BME280;59862;47.732;7.346;2023-02-01T00:54:52;99035.11;;;2.35;86.20
71996;BME280;59862;47.732;7.346;2023-02-01T00:57:20;99028.02;;;2.35;86.13
71996;BME280;59862;47.732;7.346;2023-02-01T00:59:47;99026.31;;;2.34;86.06
71996;BME280;59862;47.732;7.346;2023-02-01T01:02:15;99024.63;;;2.33;86.07
71996;BME280;59862;47.732;7.346;2023-02-01T01:04:42;99022.58;;;2.31;86.05
71996;BME280;59862;47.732;7.346;2023-02-01T01:07:09;99018.80;;;2.28;86.01
71996;BME280;59862;47.732;7.346;2023-02-01T01:09:37;99009.33;;;2.31;85.84
71996;BME280;59862;47.732;7.346;2023-02-01T01:12:04;99015.80;;;2.27;85.78
71996;BME280;59862;47.732;7.346;2023-02-01T01:14:32;99015.30;;;2.27;85.81
71996;BME280;59862;47.732;7.346;2023-02-01T01:17:00;99017.63;;;2.32;85.64
71996;BME280;59862;47.732;7.346;2023-02-01T01:19:27;99018.72;;;2.29;85.53
71996;BME280;59862;47.732;7.346;2023-02-01T01:21:55;99016.16;;;2.28;85.81
71996;BME280;59862;47.732;7.346;2023-02-01T01:24:22;99011.33;;;2.27;85.83
71996;BME280;59862;47.732;7.346;2023-02-01T01:26:49;99008.21;;;2.28;85.89
71996;BME280;59862;47.732;7.346;2023-02-01T01:29:17;99002.18;;;2.26;85.74
71996;BME280;59862;47.732;7.346;2023-02-01T01:31:44;98995.53;;;2.20;85.88
71996;BME280;59862;47.732;7.346;2023-02-01T01:34:11;98991.64;;;2.19;86.12
71996;BME280;59862;47.732;7.346;2023-02-01T01:36:39;98981.78;;;2.21;86.16
71996;BME280;59862;47.732;7.346;2023-02-01T01:39:06;98997.94;;;2.23;86.02
71996;BME280;59862;47.732;7.346;2023-02-01T01:41:34;99006.53;;;2.27;85.83
71996;BME280;59862;47.732;7.346;2023-02-01T01:44:53;99018.60;;;2.31;85.67
71996;BME280;59862;47.732;7.346;2023-02-01T01:46:37;99017.02;;;2.28;85.49
71996;BME280;59862;47.732;7.346;2023-02-01T01:51:43;99020.39;;;2.30;85.49
71996;BME280;59862;47.732;7.346;2023-02-01T01:54:38;99025.07;;;2.27;85.53
71996;BME280;59862;47.732;7.346;2023-02-01T01:57:05;99024.22;;;2.26;85.54
71996;BME280;59862;47.732;7.346;2023-02-01T01:59:34;99020.36;;;2.25;85.67
71996;BME280;59862;47.732;7.346;2023-02-01T02:02:03;99025.54;;;2.26;85.63
71996;BME280;59862;47.732;7.346;2023-02-01T02:04:33;99019.39;;;2.26;85.74
71996;BME280;59862;47.732;7.346;2023-02-01T02:07:08;99020.05;;;2.29;85.70
71996;BME280;59862;47.732;7.346;2023-02-01T02:09:31;99015.22;;;2.29;85.63
71996;BME280;59862;47.732;7.346;2023-02-01T02:14:35;99019.39;;;2.26;85.87
71996;BME280;59862;47.732;7.346;2023-02-01T02:17:12;99018.97;;;2.19;85.92
71996;BME280;59862;47.732;7.346;2023-02-01T02:25:38;99010.28;;;2.17;86.33
71996;BME280;59862;47.732;7.346;2023-02-01T02:34:16;99012.47;;;2.18;86.41
71996;BME280;59862;47.732;7.346;2023-02-01T02:37:49;99015.47;;;2.19;86.44
71996;BME280;59862;47.732;7.346;2023-02-01T02:39:41;99008.64;;;2.22;86.33
71996;BME280;59862;47.732;7.346;2023-02-01T02:48:03;98999.89;;;2.14;86.07
71996;BME280;59862;47.732;7.346;2023-02-01T02:50:35;98987.84;;;1.98;86.40
71996;BME280;59862;47.732;7.346;2023-02-01T02:53:30;98984.50;;;1.89;86.93
71996;BME280;59862;47.732;7.346;2023-02-01T02:56:16;98989.13;;;1.80;87.27
71996;BME280;59862;47.732;7.346;2023-02-01T02:59:03;98985.55;;;1.74;87.63
71996;BME280;59862;47.732;7.346;2023-02-01T03:01:50;98982.75;;;1.70;87.97
71996;BME280;59862;47.732;7.346;2023-02-01T03:04:36;98983.76;;;1.74;88.05
71996;BME280;59862;47.732;7.346;2023-02-01T03:07:14;98972.91;;;1.72;88.17
71996;BME280;59862;47.732;7.346;2023-02-01T03:09:44;98984.34;;;1.72;88.24
71996;BME280;59862;47.732;7.346;2023-02-01T03:12:13;98986.13;;;1.72;88.31
71996;BME280;59862;47.732;7.346;2023-02-01T03:15:09;98987.18;;;1.69;88.41
71996;BME280;59862;47.732;7.346;2023-02-01T03:17:35;98990.02;;;1.73;88.41
71996;BME280;59862;47.732;7.346;2023-02-01T03:20:05;99000.09;;;1.74;88.42
71996;BME280;59862;47.732;7.346;2023-02-01T03:22:34;98984.77;;;1.79;88.43
71996;BME280;59862;47.732;7.346;2023-02-01T03:25:06;98991.34;;;1.86;88.35
71996;BME280;59862;47.732;7.346;2023-02-01T03:27:41;98997.58;;;1.85;88.10
71996;BME280;59862;47.732;7.346;2023-02-01T03:30:28;99003.17;;;1.80;88.21
71996;BME280;59862;47.732;7.346;2023-02-01T03:32:58;99006.67;;;1.81;88.17
71996;BME280;59862;47.732;7.346;2023-02-01T03:35:31;99009.13;;;1.84;88.05
71996;BME280;59862;47.732;7.346;2023-02-01T03:38:08;99000.64;;;1.79;88.03
71996;BME280;59862;47.732;7.346;2023-02-01T03:40:32;98999.44;;;1.77;88.05
71996;BME280;59862;47.732;7.346;2023-02-01T03:43:02;98984.23;;;1.74;88.01
71996;BME280;59862;47.732;7.346;2023-02-01T03:45:36;98984.61;;;1.75;87.94
71996;BME280;59862;47.732;7.346;2023-02-01T03:48:07;98990.80;;;1.68;87.90
71996;BME280;59862;47.732;7.346;2023-02-01T03:50:38;98996.28;;;1.65;88.00
71996;BME280;59862;47.732;7.346;2023-02-01T03:53:12;98989.83;;;1.69;88.11
71996;BME280;59862;47.732;7.346;2023-02-01T03:55:41;98994.30;;;1.69;88.10
71996;BME280;59862;47.732;7.346;2023-02-01T03:58:22;99000.52;;;1.68;87.99
71996;BME280;59862;47.732;7.346;2023-02-01T04:00:54;99003.63;;;1.67;87.98
71996;BME280;59862;47.732;7.346;2023-02-01T04:03:22;99008.84;;;1.69;87.95
71996;BME280;59862;47.732;7.346;2023-02-01T04:05:52;99021.95;;;1.70;87.89
71996;BME280;59862;47.732;7.346;2023-02-01T04:08:21;99041.55;;;1.61;88.05
71996;BME280;59862;47.732;7.346;2023-02-01T04:10:49;99046.65;;;1.64;88.25
71996;BME280;59862;47.732;7.346;2023-02-01T04:13:17;99050.15;;;1.64;88.29
71996;BME280;59862;47.732;7.346;2023-02-01T04:15:44;99046.65;;;1.64;88.36
71996;BME280;59862;47.732;7.346;2023-02-01T04:18:12;99043.59;;;1.70;88.37
71996;BME280;59862;47.732;7.346;2023-02-01T04:20:39;99038.63;;;1.78;88.32
71996;BME280;59862;47.732;7.346;2023-02-01T04:23:06;99041.81;;;1.83;88.18
71996;BME280;59862;47.732;7.346;2023-02-01T04:25:34;99047.84;;;1.85;88.01
71996;BME280;59862;47.732;7.346;2023-02-01T04:28:01;99058.75;;;1.93;87.81
71996;BME280;59862;47.732;7.346;2023-02-01T04:30:29;99048.94;;;1.95;87.63
71996;BME280;59862;47.732;7.346;2023-02-01T04:32:56;99040.66;;;1.99;87.45
71996;BME280;59862;47.732;7.346;2023-02-01T04:35:24;99038.70;;;1.96;87.25
71996;BME280;59862;47.732;7.346;2023-02-01T04:37:51;99025.52;;;1.89;87.34
71996;BME280;59862;47.732;7.346;2023-02-01T04:40:19;99019.48;;;1.87;87.37
71996;BME280;59862;47.732;7.346;2023-02-01T04:42:46;99010.61;;;1.88;87.51
71996;BME280;59862;47.732;7.346;2023-02-01T04:45:14;99003.41;;;1.90;87.40
71996;BME280;59862;47.732;7.346;2023-02-01T04:47:41;99014.93;;;1.89;87.32
71996;BME280;59862;47.732;7.346;2023-02-01T04:50:09;99022.62;;;1.86;87.36
71996;BME280;59862;47.732;7.346;2023-02-01T04:52:38;99019.48;;;1.87;87.45
71996;BME280;59862;47.732;7.346;2023-02-01T04:55:05;99011.66;;;1.85;87.49
71996;BME280;59862;47.732;7.346;2023-02-01T04:57:33;99012.44;;;1.93;87.53
71996;BME280;59862;47.732;7.346;2023-02-01T05:00:00;99015.09;;;1.93;87.48
71996;BME280;59862;47.732;7.346;2023-02-01T05:02:28;99017.92;;;1.97;87.41
71996;BME280;59862;47.732;7.346;2023-02-01T05:04:55;99015.78;;;2.02;87.37
71996;BME280;59862;47.732;7.346;2023-02-01T05:07:23;99029.72;;;1.98;87.46
71996;BME280;59862;47.732;7.346;2023-02-01T05:09:50;99027.42;;;1.99;87.67
71996;BME280;59862;47.732;7.346;2023-02-01T05:12:17;99027.66;;;1.96;87.72
71996;BME280;59862;47.732;7.346;2023-02-01T05:15:04;99018.50;;;1.95;87.94
71996;BME280;59862;47.732;7.346;2023-02-01T05:17:31;99033.80;;;1.97;88.06
71996;BME280;59862;47.732;7.346;2023-02-01T05:19:59;99025.67;;;1.93;88.19
71996;BME280;59862;47.732;7.346;2023-02-01T05:22:26;99030.61;;;1.92;88.26
71996;BME280;59862;47.732;7.346;2023-02-01T05:24:53;99027.23;;;1.90;88.38
71996;BME280;59862;47.732;7.346;2023-02-01T05:27:21;99036.91;;;1.84;88.42
71996;BME280;59862;47.732;7.346;2023-02-01T05:29:48;99030.44;;;1.75;88.63
71996;BME280;59862;47.732;7.346;2023-02-01T05:32:16;99019.75;;;1.77;88.83
71996;BME280;59862;47.732;7.346;2023-02-01T05:34:43;99024.30;;;1.75;88.78
71996;BME280;59862;47.732;7.346;2023-02-01T05:37:10;99028.69;;;1.69;88.92
71996;BME280;59862;47.732;7.346;2023-02-01T05:39:38;99031.41;;;1.67;89.05
71996;BME280;59862;47.732;7.346;2023-02-01T05:42:05;99032.11;;;1.64;89.15
71996;BME280;59862;47.732;7.346;2023-02-01T05:44:33;99038.72;;;1.64;89.35
71996;BME280;59862;47.732;7.346;2023-02-01T05:47:00;99043.04;;;1.65;89.35
71996;BME280;59862;47.732;7.346;2023-02-01T05:49:27;99056.66;;;1.66;89.36
71996;BME280;59862;47.732;7.346;2023-02-01T05:51:55;99059.48;;;1.63;89.37
71996;BME280;59862;47.732;7.346;2023-02-01T05:54:22;99050.23;;;1.63;89.43
71996;BME280;59862;47.732;7.346;2023-02-01T05:56:50;99049.30;;;1.64;89.39
71996;BME280;59862;47.732;7.346;2023-02-01T05:59:17;99058.91;;;1.65;89.39
71996;BME280;59862;47.732;7.346;2023-02-01T06:01:45;99063.16;;;1.67;89.33
71996;BME280;59862;47.732;7.346;2023-02-01T06:04:12;99071.67;;;1.65;89.32
71996;BME280;59862;47.732;7.346;2023-02-01T06:06:39;99069.71;;;1.62;89.47
71996;BME280;59862;47.732;7.346;2023-02-01T06:09:07;99075.33;;;1.70;89.48
71996;BME280;59862;47.732;7.346;2023-02-01T06:11:34;99072.69;;;1.70;89.47
71996;BME280;59862;47.732;7.346;2023-02-01T06:14:02;99076.74;;;1.75;89.48
71996;BME280;59862;47.732;7.346;2023-02-01T06:16:29;99073.98;;;1.77;89.51
71996;BME280;59862;47.732;7.346;2023-02-01T06:18:58;99068.58;;;1.78;89.53
71996;BME280;59862;47.732;7.346;2023-02-01T06:21:25;99060.17;;;1.79;89.56
71996;BME280;59862;47.732;7.346;2023-02-01T06:23:53;99065.08;;;1.78;89.66
71996;BME280;59862;47.732;7.346;2023-02-01T06:26:23;99071.14;;;1.80;89.78
71996;BME280;59862;47.732;7.346;2023-02-01T06:28:50;99077.70;;;1.87;89.74
71996;BME280;59862;47.732;7.346;2023-02-01T06:31:17;99082.80;;;1.90;89.67
71996;BME280;59862;47.732;7.346;2023-02-01T06:33:45;99086.54;;;1.93;89.57
71996;BME280;59862;47.732;7.346;2023-02-01T06:36:13;99095.25;;;1.95;89.46
71996;BME280;59862;47.732;7.346;2023-02-01T06:38:42;99095.42;;;1.99;89.29
71996;BME280;59862;47.732;7.346;2023-02-01T06:41:10;99092.27;;;1.99;89.15
71996;BME280;59862;47.732;7.346;2023-02-01T06:43:37;99081.80;;;1.98;88.99
71996;BME280;59862;47.732;7.346;2023-02-01T06:46:08;99081.95;;;2.02;88.89
71996;BME280;59862;47.732;7.346;2023-02-01T06:48:36;99085.53;;;2.08;88.77
71996;BME280;59862;47.732;7.346;2023-02-01T06:51:03;99092.89;;;2.10;88.57
71996;BME280;59862;47.732;7.346;2023-02-01T06:53:32;99087.48;;;2.11;88.46
71996;BME280;59862;47.732;7.346;2023-02-01T06:56:01;99089.23;;;2.18;88.29
71996;BME280;59862;47.732;7.346;2023-02-01T06:58:33;99100.69;;;2.18;88.12
71996;BME280;59862;47.732;7.346;2023-02-01T07:01:08;99110.78;;;2.19;87.96
71996;BME280;59862;47.732;7.346;2023-02-01T07:03:37;99115.48;;;2.21;87.95
71996;BME280;59862;47.732;7.346;2023-02-01T07:06:05;99112.80;;;2.28;87.88
71996;BME280;59862;47.732;7.346;2023-02-01T07:08:35;99118.09;;;2.28;87.66
71996;BME280;59862;47.732;7.346;2023-02-01T07:11:08;99113.34;;;2.33;87.51
71996;BME280;59862;47.732;7.346;2023-02-01T07:13:37;99124.09;;;2.37;87.39
71996;BME280;59862;47.732;7.346;2023-02-01T07:16:06;99131.11;;;2.38;87.43
71996;BME280;59862;47.732;7.346;2023-02-01T07:18:34;99134.69;;;2.37;87.49
71996;BME280;59862;47.732;7.346;2023-02-01T07:21:02;99129.66;;;2.40;87.60
71996;BME280;59862;47.732;7.346;2023-02-01T07:23:29;99131.27;;;2.42;87.69
71996;BME280;59862;47.732;7.346;2023-02-01T07:26:00;99133.75;;;2.38;87.93
71996;BME280;59862;47.732;7.346;2023-02-01T07:28:30;99136.33;;;2.33;88.31
71996;BME280;59862;47.732;7.346;2023-02-01T07:31:10;99139.09;;;2.31;88.67
71996;BME280;59862;47.732;7.346;2023-02-01T07:33:33;99139.83;;;2.33;88.90
71996;BME280;59862;47.732;7.346;2023-02-01T07:36:03;99131.50;;;2.32;89.03
71996;BME280;59862;47.732;7.346;2023-02-01T07:38:32;99136.21;;;2.34;89.09
71996;BME280;59862;47.732;7.346;2023-02-01T07:41:02;99135.27;;;2.35;89.15
71996;BME280;59862;47.732;7.346;2023-02-01T07:43:31;99139.52;;;2.38;89.20
71996;BME280;59862;47.732;7.346;2023-02-01T07:46:03;99147.51;;;2.43;89.16
71996;BME280;59862;47.732;7.346;2023-02-01T07:48:31;99147.04;;;2.44;89.12
71996;BME280;59862;47.732;7.346;2023-02-01T07:51:09;99142.37;;;2.47;89.06
71996;BME280;59862;47.732;7.346;2023-02-01T07:53:38;99141.78;;;2.49;89.02
71996;BME280;59862;47.732;7.346;2023-02-01T07:56:11;99139.98;;;2.50;89.06
71996;BME280;59862;47.732;7.346;2023-02-01T07:58:39;99138.58;;;2.51;89.18
71996;BME280;59862;47.732;7.346;2023-02-01T08:01:14;99139.48;;;2.57;89.30
71996;BME280;59862;47.732;7.346;2023-02-01T08:04:01;99138.73;;;2.55;89.40
71996;BME280;59862;47.732;7.346;2023-02-01T08:06:31;99129.98;;;2.60;89.34
71996;BME280;59862;47.732;7.346;2023-02-01T08:08:58;99136.82;;;2.70;89.42
71996;BME280;59862;47.732;7.346;2023-02-01T08:11:26;99126.36;;;2.86;89.38
71996;BME280;59862;47.732;7.346;2023-02-01T08:13:54;99133.13;;;2.90;89.08
71996;BME280;59862;47.732;7.346;2023-02-01T08:16:23;99128.06;;;2.87;88.65
71996;BME280;59862;47.732;7.346;2023-02-01T08:18:52;99129.83;;;2.81;88.25
71996;BME280;59862;47.732;7.346;2023-02-01T08:21:23;99133.25;;;2.89;88.21
71996;BME280;59862;47.732;7.346;2023-02-01T08:23:50;99129.84;;;2.99;88.06
71996;BME280;59862;47.732;7.346;2023-02-01T08:26:20;99127.13;;;3.06;87.93
71996;BME280;59862;47.732;7.346;2023-02-01T08:28:56;99128.98;;;3.12;87.77
71996;BME280;59862;47.732;7.346;2023-02-01T08:31:20;99129.39;;;3.05;87.64
71996;BME280;59862;47.732;7.346;2023-02-01T08:33:51;99118.70;;;3.07;87.76
71996;BME280;59862;47.732;7.346;2023-02-01T08:36:22;99126.50;;;3.21;87.71
71996;BME280;59862;47.732;7.346;2023-02-01T08:38:48;99119.02;;;3.21;87.47
71996;BME280;59862;47.732;7.346;2023-02-01T08:41:18;99122.05;;;3.22;87.33
71996;BME280;59862;47.732;7.346;2023-02-01T08:43:46;99117.77;;;3.32;87.35
71996;BME280;59862;47.732;7.346;2023-02-01T08:46:14;99123.22;;;3.36;87.03
71996;BME280;59862;47.732;7.346;2023-02-01T08:48:42;99110.95;;;3.40;86.77
71996;BME280;59862;47.732;7.346;2023-02-01T08:51:11;99119.50;;;3.38;86.61
71996;BME280;59862;47.732;7.346;2023-02-01T08:53:40;99133.27;;;3.38;86.65
71996;BME280;59862;47.732;7.346;2023-02-01T08:56:09;99134.95;;;3.39;86.75
71996;BME280;59862;47.732;7.346;2023-02-01T08:58:38;99128.25;;;3.46;86.66
71996;BME280;59862;47.732;7.346;2023-02-01T09:01:11;99123.67;;;3.48;86.47
71996;BME280;59862;47.732;7.346;2023-02-01T09:03:40;99135.16;;;3.54;86.39
71996;BME280;59862;47.732;7.346;2023-02-01T09:06:10;99140.13;;;3.58;86.19
71996;BME280;59862;47.732;7.346;2023-02-01T09:08:39;99144.05;;;3.71;85.87
71996;BME280;59862;47.732;7.346;2023-02-01T09:11:10;99139.86;;;3.74;85.47
71996;BME280;59862;47.732;7.346;2023-02-01T09:13:37;99154.81;;;3.75;85.38
71996;BME280;59862;47.732;7.346;2023-02-01T09:16:04;99151.80;;;3.74;85.44
71996;BME280;59862;47.732;7.346;2023-02-01T09:18:32;99168.33;;;3.72;85.52
71996;BME280;59862;47.732;7.346;2023-02-01T09:21:03;99169.06;;;3.74;85.46
71996;BME280;59862;47.732;7.346;2023-02-01T09:23:28;99157.97;;;3.74;85.44
71996;BME280;59862;47.732;7.346;2023-02-01T09:26:01;99169.79;;;3.76;85.27
71996;BME280;59862;47.732;7.346;2023-02-01T09:28:29;99175.69;;;3.74;85.06
71996;BME280;59862;47.732;7.346;2023-02-01T09:30:58;99171.05;;;3.83;85.03
71996;BME280;59862;47.732;7.346;2023-02-01T09:33:26;99163.81;;;3.85;84.85
71996;BME280;59862;47.732;7.346;2023-02-01T09:36:02;99162.74;;;3.88;84.64
71996;BME280;59862;47.732;7.346;2023-02-01T09:38:31;99166.73;;;3.93;84.39
71996;BME280;59862;47.732;7.346;2023-02-01T09:40:59;99165.53;;;3.92;84.31
71996;BME280;59862;47.732;7.346;2023-02-01T09:43:49;99171.45;;;3.95;84.34
71996;BME280;59862;47.732;7.346;2023-02-01T09:46:23;99173.24;;;3.89;84.40
71996;BME280;59862;47.732;7.346;2023-02-01T09:48:54;99163.22;;;3.87;84.79
71996;BME280;59862;47.732;7.346;2023-02-01T09:51:32;99166.81;;;3.86;85.06
71996;BME280;59862;47.732;7.346;2023-02-01T09:57:00;99157.45;;;3.99;84.64
71996;BME280;59862;47.732;7.346;2023-02-01T09:59:34;99151.81;;;4.38;83.53
71996;BME280;59862;47.732;7.346;2023-02-01T10:02:03;99163.07;;;4.41;82.44
71996;BME280;59862;47.732;7.346;2023-02-01T10:04:31;99158.20;;;4.35;82.69
71996;BME280;59862;47.732;7.346;2023-02-01T10:07:19;99156.65;;;4.38;82.58
71996;BME280;59862;47.732;7.346;2023-02-01T10:12:38;99147.16;;;4.52;81.87
71996;BME280;59862;47.732;7.346;2023-02-01T10:15:15;99146.42;;;4.61;81.51
71996;BME280;59862;47.732;7.346;2023-02-01T10:17:49;99156.73;;;4.72;80.87
71996;BME280;59862;47.732;7.346;2023-02-01T10:26:08;99168.70;;;4.88;79.99
71996;BME280;59862;47.732;7.346;2023-02-01T10:28:35;99160.73;;;4.83;79.99
71996;BME280;59862;47.732;7.346;2023-02-01T10:31:05;99154.81;;;4.85;79.48
71996;BME280;59862;47.732;7.346;2023-02-01T10:33:42;99153.73;;;4.87;79.59
71996;BME280;59862;47.732;7.346;2023-02-01T10:36:39;99149.73;;;4.93;79.26
71996;BME280;59862;47.732;7.346;2023-02-01T10:39:04;99153.61;;;5.05;79.07
71996;BME280;59862;47.732;7.346;2023-02-01T10:41:38;99161.36;;;5.19;78.37
71996;BME280;59862;47.732;7.346;2023-02-01T10:44:19;99160.14;;;5.12;78.21
71996;BME280;59862;47.732;7.346;2023-02-01T10:46:43;99165.22;;;5.10;78.21
71996;BME280;59862;47.732;7.346;2023-02-01T10:52:12;99175.25;;;5.34;77.70
71996;BME280;59862;47.732;7.346;2023-02-01T10:54:40;99168.47;;;5.35;77.34
71996;BME280;59862;47.732;7.346;2023-02-01T10:57:10;99170.42;;;5.28;77.41
71996;BME280;59862;47.732;7.346;2023-02-01T10:59:38;99164.12;;;5.18;78.00
71996;BME280;59862;47.732;7.346;2023-02-01T11:05:08;99175.02;;;5.04;78.22
71996;BME280;59862;47.732;7.346;2023-02-01T11:07:40;99165.94;;;5.12;78.56
71996;BME280;59862;47.732;7.346;2023-02-01T11:10:13;99158.09;;;5.10;78.63
71996;BME280;59862;47.732;7.346;2023-02-01T11:12:39;99157.12;;;5.06;78.79
71996;BME280;59862;47.732;7.346;2023-02-01T11:15:21;99148.30;;;5.00;79.01
71996;BME280;59862;47.732;7.346;2023-02-01T11:17:51;99155.92;;;5.15;78.92
71996;BME280;59862;47.732;7.346;2023-02-01T11:20:39;99146.84;;;5.12;78.74
71996;BME280;59862;47.732;7.346;2023-02-01T11:23:19;99146.83;;;5.07;78.91
71996;BME280;59862;47.732;7.346;2023-02-01T11:25:59;99147.58;;;5.09;78.99
71996;BME280;59862;47.732;7.346;2023-02-01T11:28:32;99138.63;;;5.04;78.91
71996;BME280;59862;47.732;7.346;2023-02-01T11:31:03;99131.73;;;5.13;79.02
71996;BME280;59862;47.732;7.346;2023-02-01T11:33:34;99130.86;;;5.18;78.73
71996;BME280;59862;47.732;7.346;2023-02-01T11:36:11;99131.58;;;5.31;78.33
71996;BME280;59862;47.732;7.346;2023-02-01T11:38:35;99133.02;;;5.35;77.53
71996;BME280;59862;47.732;7.346;2023-02-01T11:41:13;99113.67;;;5.33;77.79
71996;BME280;59862;47.732;7.346;2023-02-01T11:43:59;99122.38;;;5.35;77.41
71996;BME280;59862;47.732;7.346;2023-02-01T11:46:35;99108.95;;;5.31;77.13
71996;BME280;59862;47.732;7.346;2023-02-01T11:49:21;99099.89;;;5.39;77.13
71996;BME280;59862;47.732;7.346;2023-02-01T11:52:14;99113.57;;;5.34;77.21
71996;BME280;59862;47.732;7.346;2023-02-01T12:00:13;99112.50;;;5.15;77.67
71996;BME280;59862;47.732;7.346;2023-02-01T12:03:10;99116.72;;;5.23;77.58
71996;BME280;59862;47.732;7.346;2023-02-01T12:11:35;99116.48;;;5.26;77.32
71996;BME280;59862;47.732;7.346;2023-02-01T12:38:56;99079.05;;;5.50;74.71
71996;BME280;59862;47.732;7.346;2023-02-01T12:41:51;99076.33;;;5.66;73.98
71996;BME280;59862;47.732;7.346;2023-02-01T12:44:28;99085.09;;;5.83;73.52
71996;BME280;59862;47.732;7.346;2023-02-01T12:52:43;99062.78;;;5.69;72.38
71996;BME280;59862;47.732;7.346;2023-02-01T12:55:22;99053.26;;;5.56;73.12
71996;BME280;59862;47.732;7.346;2023-02-01T12:58:13;99052.95;;;5.38;73.33
71996;BME280;59862;47.732;7.346;2023-02-01T13:00:46;99035.33;;;5.26;73.46
71996;BME280;59862;47.732;7.346;2023-02-01T13:03:40;99030.97;;;5.30;73.77
71996;BME280;59862;47.732;7.346;2023-02-01T13:11:37;99012.13;;;5.17;74.47
71996;BME280;59862;47.732;7.346;2023-02-01T13:16:47;99006.44;;;5.21;74.06
71996;BME280;59862;47.732;7.346;2023-02-01T13:19:29;99009.78;;;5.29;73.54
71996;BME280;59862;47.732;7.346;2023-02-01T13:22:21;99009.41;;;5.33;73.34
71996;BME280;59862;47.732;7.346;2023-02-01T13:25:02;98997.98;;;5.48;73.09
71996;BME280;59862;47.732;7.346;2023-02-01T13:27:27;98998.78;;;6.72;69.43
71996;BME280;59862;47.732;7.346;2023-02-01T13:29:59;99003.81;;;6.36;69.43
71996;BME280;59862;47.732;7.346;2023-02-01T13:32:50;99006.05;;;6.10;70.45
71996;BME280;59862;47.732;7.346;2023-02-01T13:43:49;99023.81;;;5.31;71.97
71996;BME280;59862;47.732;7.346;2023-02-01T13:46:18;99019.23;;;5.27;71.37
71996;BME280;59862;47.732;7.346;2023-02-01T13:48:53;99016.70;;;5.20;71.87
71996;BME280;59862;47.732;7.346;2023-02-01T13:51:35;99011.39;;;5.26;71.20
71996;BME280;59862;47.732;7.346;2023-02-01T13:54:04;99008.93;;;5.28;71.14
71996;BME280;59862;47.732;7.346;2023-02-01T13:56:40;99016.20;;;5.32;71.13
71996;BME280;59862;47.732;7.346;2023-02-01T14:08:11;99035.03;;;5.40;71.78
71996;BME280;59862;47.732;7.346;2023-02-01T14:10:59;99040.46;;;5.44;71.71
71996;BME280;59862;47.732;7.346;2023-02-01T14:13:34;99046.16;;;5.45;71.78
71996;BME280;59862;47.732;7.346;2023-02-01T14:24:02;99064.07;;;5.43;71.72
71996;BME280;59862;47.732;7.346;2023-02-01T14:26:49;99066.25;;;5.38;71.33
71996;BME280;59862;47.732;7.346;2023-02-01T14:29:37;99067.23;;;5.31;71.57
71996;BME280;59862;47.732;7.346;2023-02-01T14:34:50;99057.55;;;5.36;71.95
71996;BME280;59862;47.732;7.346;2023-02-01T14:39:56;99067.09;;;5.33;71.96
71996;BME280;59862;47.732;7.346;2023-02-01T14:42:42;99063.00;;;5.29;71.68
71996;BME280;59862;47.732;7.346;2023-02-01T14:50:42;99076.55;;;5.31;71.13
71996;BME280;59862;47.732;7.346;2023-02-01T14:53:24;99073.20;;;5.24;71.37
71996;BME280;59862;47.732;7.346;2023-02-01T14:56:13;99075.95;;;5.22;71.58
71996;BME280;59862;47.732;7.346;2023-02-01T14:59:01;99071.72;;;5.20;71.62
71996;BME280;59862;47.732;7.346;2023-02-01T15:01:35;99072.94;;;5.16;71.43
71996;BME280;59862;47.732;7.346;2023-02-01T15:04:16;99056.03;;;5.17;71.66
71996;BME280;59862;47.732;7.346;2023-02-01T15:06:56;99067.03;;;5.12;71.59
71996;BME280;59862;47.732;7.346;2023-02-01T15:12:16;99075.49;;;5.12;71.48
71996;BME280;59862;47.732;7.346;2023-02-01T15:14:37;99072.24;;;5.08;71.70
71996;BME280;59862;47.732;7.346;2023-02-01T15:17:27;99066.07;;;5.08;71.59
71996;BME280;59862;47.732;7.346;2023-02-01T15:19:59;99068.14;;;5.04;71.75
71996;BME280;59862;47.732;7.346;2023-02-01T15:22:29;99056.66;;;5.04;71.72
71996;BME280;59862;47.732;7.346;2023-02-01T15:24:59;99069.84;;;5.00;71.56
71996;BME280;59862;47.732;7.346;2023-02-01T15:27:28;99060.40;;;5.01;71.66
71996;BME280;59862;47.732;7.346;2023-02-01T15:30:08;99064.03;;;4.95;71.76
71996;BME280;59862;47.732;7.346;2023-02-01T15:32:35;99063.66;;;4.94;71.87
71996;BME280;59862;47.732;7.346;2023-02-01T15:35:05;99072.23;;;5.03;71.65
71996;BME280;59862;47.732;7.346;2023-02-01T15:37:33;99085.55;;;4.97;71.54
71996;BME280;59862;47.732;7.346;2023-02-01T15:42:51;99086.04;;;5.02;71.35
71996;BME280;59862;47.732;7.346;2023-02-01T15:45:22;99093.75;;;5.05;71.24